Terminal Aerodrome Forecast
Issued by NWS Shreveport, LA

Current Version | Previous Version | Text Only | Print | Product List | Glossary On
Versions: 1 2 3 4 5 6 7 8 9 10 11 12 13 14 15 16 17
000
FTUS44 KSHV 222300
TAFLFK
TAF
KLFK 222327Z 2300/2324 06005KT P6SM SKC
     FM230400 07004KT P6SM SCT150 BKN250
     FM231500 07004KT P6SM FEW150=

USA.gov is the U.S. government's official web portal to all federal, state and local government web resources and services.